Time;durP1;ratioP1;P1;durP2;ratioP2;P2;SDS_P1;SDS_P2;PMS_P1;PMS_P2;Temp;Humidity;BMP_temperature;BMP_pressure;BME280_temperature;BME280_humidity;BME280_pressure;Samples;Min_cycle;Max_cycle;Signal;HPM_P1;HPM_P2
2022/07/04 00:00:08;;;;;;;8.90;6.72;;;;;;;;;;4997308;28;20045;-70
2022/07/04 00:02:35;;;;;;;8.43;6.32;;;;;;;;;;4997735;28;20065;-70
2022/07/04 00:05:01;;;;;;;11.77;6.40;;;;;;;;;;4997509;28;20050;-70
2022/07/04 00:07:27;;;;;;;12.07;6.50;;;;;;;;;;4997539;28;20077;-69
2022/07/04 00:09:53;;;;;;;8.75;6.30;;;;;;;;;;4997216;28;20049;-70
2022/07/04 00:12:20;;;;;;;7.88;5.97;;;;;;;;;;4997665;28;20132;-75
2022/07/04 00:14:46;;;;;;;8.05;5.80;;;;;;;;;;4997037;28;20041;-75
2022/07/04 00:17:12;;;;;;;7.88;5.50;;;;;;;;;;4997756;28;20048;-75
2022/07/04 00:19:38;;;;;;;6.97;4.68;;;;;;;;;;4997310;28;20046;-75
2022/07/04 00:22:04;;;;;;;7.50;5.40;;;;;;;;;;5015209;28;20049;-75
2022/07/04 00:24:30;;;;;;;7.53;5.13;;;;;;;;;;4997488;28;20371;-75
2022/07/04 00:26:56;;;;;;;7.60;5.72;;;;;;;;;;5014638;28;20058;-75
2022/07/04 00:29:23;;;;;;;7.78;5.85;;;;;;;;;;4997748;28;20372;-75
2022/07/04 00:31:49;;;;;;;7.22;5.43;;;;;;;;;;4997248;28;20045;-75
2022/07/04 00:34:15;;;;;;;9.68;5.80;;;;;;;;;;4997305;28;20042;-75
2022/07/04 00:36:41;;;;;;;7.35;5.20;;;;;;;;;;5013728;28;20038;-75
2022/07/04 00:39:07;;;;;;;9.10;4.95;;;;;;;;;;4996896;28;20502;-75
2022/07/04 00:41:33;;;;;;;10.35;6.10;;;;;;;;;;4997343;28;20037;-75
2022/07/04 00:44:10;;;;;;;7.43;5.60;;;;;;;;;;5014376;28;20117;-75
2022/07/04 00:46:36;;;;;;;7.35;6.10;;;;;;;;;;4997332;28;20396;-75
2022/07/04 00:49:06;;;;;;;8.07;5.88;;;;;;;;;;5013155;28;20129;-74
2022/07/04 00:51:32;;;;;;;9.52;5.78;;;;;;;;;;5014785;28;20042;-75
2022/07/04 00:53:58;;;;;;;9.23;5.85;;;;;;;;;;4996509;28;20129;-75
2022/07/04 00:56:25;;;;;;;7.50;5.60;;;;;;;;;;4997306;28;20038;-75
2022/07/04 00:58:52;;;;;;;7.68;4.28;;;;;;;;;;4995500;28;20085;-74
2022/07/04 01:01:22;;;;;;;11.25;4.47;;;;;;;;;;5014419;28;20038;-74
2022/07/04 01:03:49;;;;;;;9.52;4.82;;;;;;;;;;4997011;28;20037;-74
2022/07/04 01:06:15;;;;;;;8.07;5.07;;;;;;;;;;4996830;28;20042;-75
2022/07/04 01:08:42;;;;;;;9.05;6.20;;;;;;;;;;4997040;28;20100;-75
2022/07/04 01:11:09;;;;;;;8.75;5.82;;;;;;;;;;5018198;28;20113;-74
2022/07/04 01:13:36;;;;;;;10.38;6.45;;;;;;;;;;5014008;28;20042;-74
2022/07/04 01:16:03;;;;;;;13.30;6.78;;;;;;;;;;4996461;28;20618;-74
2022/07/04 01:18:29;;;;;;;10.27;6.10;;;;;;;;;;5013991;28;20026;-74
2022/07/04 01:20:55;;;;;;;8.18;6.10;;;;;;;;;;5012729;28;20044;-74
2022/07/04 01:23:22;;;;;;;7.65;6.10;;;;;;;;;;5014042;28;20038;-74
2022/07/04 01:25:52;;;;;;;8.85;6.30;;;;;;;;;;4996292;28;20105;-73
2022/07/04 01:28:22;;;;;;;10.75;5.90;;;;;;;;;;4996068;28;20042;-74
2022/07/04 01:30:48;;;;;;;9.73;6.20;;;;;;;;;;4996632;28;20921;-74
2022/07/04 01:33:17;;;;;;;11.15;6.80;;;;;;;;;;5013554;28;20052;-74
2022/07/04 01:35:43;;;;;;;10.73;7.00;;;;;;;;;;4995927;28;20125;-74
2022/07/04 01:38:09;;;;;;;12.85;6.75;;;;;;;;;;5012338;28;20038;-74
2022/07/04 01:40:35;;;;;;;8.57;5.95;;;;;;;;;;4995797;28;20376;-74
2022/07/04 01:43:01;;;;;;;8.50;6.43;;;;;;;;;;4995789;28;20056;-74
2022/07/04 01:45:28;;;;;;;8.25;6.68;;;;;;;;;;4995800;28;20128;-74
2022/07/04 01:47:54;;;;;;;11.18;6.93;;;;;;;;;;4995948;28;20049;-74
2022/07/04 01:50:20;;;;;;;10.38;6.30;;;;;;;;;;4995775;28;20509;-75
2022/07/04 01:52:46;;;;;;;9.40;6.50;;;;;;;;;;4996098;28;20081;-74
2022/07/04 01:55:13;;;;;;;10.50;6.30;;;;;;;;;;4995790;28;20522;-74
2022/07/04 01:57:39;;;;;;;12.20;7.07;;;;;;;;;;5013915;28;20116;-74
2022/07/04 02:02:51;;;;;;;10.70;6.95;;;;;;;;;;5012930;28;20046;-74
2022/07/04 02:05:17;;;;;;;10.50;7.03;;;;;;;;;;4994901;28;20030;-74
2022/07/04 02:07:44;;;;;;;9.27;6.45;;;;;;;;;;5011641;28;20044;-74
2022/07/04 02:10:10;;;;;;;10.38;6.43;;;;;;;;;;4994926;28;20049;-74
2022/07/04 02:15:21;;;;;;;11.13;6.55;;;;;;;;;;5012705;28;20045;-74
2022/07/04 02:17:47;;;;;;;10.65;6.43;;;;;;;;;;5013010;28;20518;-74
2022/07/04 02:20:13;;;;;;;8.63;6.85;;;;;;;;;;4994636;28;20117;-74
2022/07/04 02:22:40;;;;;;;11.00;8.02;;;;;;;;;;4995657;28;20561;-74
2022/07/04 02:25:06;;;;;;;13.95;7.63;;;;;;;;;;4994803;28;20037;-74
2022/07/04 02:27:32;;;;;;;12.65;7.60;;;;;;;;;;5012686;28;20062;-74
2022/07/04 02:29:58;;;;;;;11.05;7.95;;;;;;;;;;4994880;28;20050;-74
2022/07/04 02:32:24;;;;;;;10.38;7.45;;;;;;;;;;4994957;28;20033;-74
2022/07/04 02:34:50;;;;;;;16.20;8.07;;;;;;;;;;5008627;28;20038;-74
2022/07/04 02:37:17;;;;;;;12.20;7.93;;;;;;;;;;5012573;28;20041;-69
2022/07/04 02:39:43;;;;;;;12.90;8.15;;;;;;;;;;4994954;28;20061;-69
2022/07/04 02:42:09;;;;;;;9.98;7.80;;;;;;;;;;4994408;28;20038;-70
2022/07/04 02:44:35;;;;;;;10.65;8.05;;;;;;;;;;4994691;28;20075;-69
2022/07/04 02:47:01;;;;;;;14.30;8.65;;;;;;;;;;5012421;28;20037;-69
2022/07/04 02:49:28;;;;;;;11.43;7.80;;;;;;;;;;4994671;28;20042;-69
2022/07/04 02:51:54;;;;;;;12.90;7.70;;;;;;;;;;4978656;28;20049;-69
2022/07/04 02:54:20;;;;;;;12.05;8.27;;;;;;;;;;4994741;28;20546;-69
2022/07/04 02:56:46;;;;;;;14.20;8.23;;;;;;;;;;4994716;28;20042;-74
2022/07/04 02:59:12;;;;;;;11.10;7.80;;;;;;;;;;4994476;28;20124;-74
2022/07/04 03:01:38;;;;;;;15.52;8.05;;;;;;;;;;4995014;28;20033;-69
2022/07/04 03:04:04;;;;;;;10.35;7.70;;;;;;;;;;5012703;28;20542;-74
2022/07/04 03:06:31;;;;;;;14.23;8.63;;;;;;;;;;5011119;28;20092;-74
2022/07/04 03:08:57;;;;;;;11.73;7.70;;;;;;;;;;4994827;28;20066;-69
2022/07/04 03:11:23;;;;;;;11.73;7.60;;;;;;;;;;4994481;28;20402;-69
2022/07/04 03:13:49;;;;;;;12.60;7.95;;;;;;;;;;4994650;28;20041;-74
2022/07/04 03:16:15;;;;;;;14.70;7.97;;;;;;;;;;4993888;28;20044;-74
2022/07/04 03:18:41;;;;;;;14.57;7.82;;;;;;;;;;4994786;28;20495;-74
2022/07/04 03:21:07;;;;;;;12.55;8.20;;;;;;;;;;4993932;28;20050;-68
2022/07/04 03:23:34;;;;;;;14.18;9.13;;;;;;;;;;4984753;28;20033;-74
2022/07/04 03:26:00;;;;;;;11.60;8.40;;;;;;;;;;4998512;28;20503;-74
2022/07/04 03:28:27;;;;;;;11.40;8.90;;;;;;;;;;5015628;28;20073;-74
2022/07/04 03:30:53;;;;;;;12.25;8.50;;;;;;;;;;5015964;28;20438;-69
2022/07/04 03:33:19;;;;;;;12.13;9.52;;;;;;;;;;5013445;28;20038;-69
2022/07/04 03:35:46;;;;;;;15.95;8.90;;;;;;;;;;4998063;28;20073;-69
2022/07/04 03:38:12;;;;;;;13.82;9.80;;;;;;;;;;4998226;28;20124;-72
2022/07/04 03:40:38;;;;;;;18.67;9.82;;;;;;;;;;5016059;28;20424;-75
2022/07/04 03:43:06;;;;;;;15.38;9.43;;;;;;;;;;4998232;28;20130;-71
2022/07/04 03:45:32;;;;;;;14.52;9.90;;;;;;;;;;4981856;28;20121;-70
2022/07/04 03:47:58;;;;;;;14.10;9.73;;;;;;;;;;5014459;28;20096;-70
2022/07/04 03:50:24;;;;;;;14.05;9.30;;;;;;;;;;4997856;28;20077;-70
2022/07/04 03:52:51;;;;;;;15.23;8.93;;;;;;;;;;5014383;28;20109;-73
2022/07/04 03:55:17;;;;;;;12.65;8.43;;;;;;;;;;5015355;28;20034;-72
2022/07/04 03:57:43;;;;;;;11.60;8.40;;;;;;;;;;5015419;28;20077;-68
2022/07/04 04:00:10;;;;;;;12.15;8.20;;;;;;;;;;4997905;28;20049;-68
2022/07/04 04:02:36;;;;;;;13.63;7.53;;;;;;;;;;5004654;28;20429;-71
2022/07/04 04:07:48;;;;;;;10.73;7.57;;;;;;;;;;5007325;28;20498;-69
2022/07/04 04:10:14;;;;;;;10.48;7.75;;;;;;;;;;5020007;28;20064;-69
2022/07/04 04:12:40;;;;;;;12.60;7.32;;;;;;;;;;5006286;28;20156;-69
2022/07/04 04:15:06;;;;;;;13.15;7.72;;;;;;;;;;5004170;28;20045;-73
2022/07/04 04:17:32;;;;;;;10.55;7.25;;;;;;;;;;5007650;28;20042;-73
2022/07/04 04:19:58;;;;;;;10.52;7.13;;;;;;;;;;4993095;28;20553;-69
2022/07/04 04:22:24;;;;;;;16.33;7.35;;;;;;;;;;5014720;28;20434;-70
2022/07/04 04:24:50;;;;;;;12.10;7.10;;;;;;;;;;5015191;28;20033;-69
2022/07/04 04:27:17;;;;;;;8.90;6.00;;;;;;;;;;4996750;28;20050;-70
2022/07/04 04:29:43;;;;;;;9.68;6.25;;;;;;;;;;4981482;28;20049;-73
2022/07/04 04:32:09;;;;;;;10.85;6.53;;;;;;;;;;5015232;28;20478;-72
2022/07/04 04:34:35;;;;;;;9.77;5.80;;;;;;;;;;4996929;28;20038;-70
2022/07/04 04:37:01;;;;;;;7.57;5.82;;;;;;;;;;4997038;28;20084;-69
2022/07/04 04:39:27;;;;;;;10.43;6.05;;;;;;;;;;4996781;28;20045;-73
2022/07/04 04:41:53;;;;;;;9.10;5.43;;;;;;;;;;4996859;28;20050;-72
2022/07/04 04:44:19;;;;;;;10.80;6.00;;;;;;;;;;5014371;28;20042;-73
2022/07/04 04:46:46;;;;;;;9.73;5.70;;;;;;;;;;4993876;28;20057;-73
2022/07/04 04:49:12;;;;;;;8.65;5.38;;;;;;;;;;4997287;28;20572;-73
2022/07/04 04:51:40;;;;;;;8.90;6.45;;;;;;;;;;5014052;28;20402;-73
2022/07/04 04:54:06;;;;;;;12.25;5.30;;;;;;;;;;4997165;28;20499;-70
2022/07/04 04:56:32;;;;;;;9.98;5.75;;;;;;;;;;4996837;28;20501;-72
2022/07/04 04:58:58;;;;;;;7.57;4.97;;;;;;;;;;4996562;28;20124;-73
2022/07/04 05:01:24;;;;;;;6.53;5.15;;;;;;;;;;4996482;28;20038;-73
2022/07/04 05:03:50;;;;;;;6.43;4.93;;;;;;;;;;4996662;28;20082;-72
2022/07/04 05:06:16;;;;;;;6.80;4.88;;;;;;;;;;4996967;28;20483;-70
2022/07/04 05:08:42;;;;;;;7.63;4.63;;;;;;;;;;4996297;28;20068;-70
2022/07/04 05:11:08;;;;;;;8.43;4.75;;;;;;;;;;4996618;28;20491;-70
2022/07/04 05:13:35;;;;;;;9.55;4.65;;;;;;;;;;4996249;28;20096;-71
2022/07/04 05:16:01;;;;;;;8.02;4.75;;;;;;;;;;4980522;28;20042;-71
2022/07/04 05:18:27;;;;;;;11.02;4.68;;;;;;;;;;4996001;28;20034;-73
2022/07/04 05:20:53;;;;;;;7.53;4.45;;;;;;;;;;4996547;28;20525;-73
2022/07/04 05:23:19;;;;;;;9.23;4.50;;;;;;;;;;4979993;28;20042;-73
2022/07/04 05:25:45;;;;;;;9.60;4.57;;;;;;;;;;4995890;28;20042;-73
2022/07/04 05:28:11;;;;;;;5.88;4.25;;;;;;;;;;4996173;28;20045;-73
2022/07/04 05:30:37;;;;;;;7.65;3.67;;;;;;;;;;4996250;28;20503;-73
2022/07/04 05:33:03;;;;;;;7.78;3.70;;;;;;;;;;4996099;28;20053;-73
2022/07/04 05:35:30;;;;;;;8.95;3.88;;;;;;;;;;5013413;28;20113;-73
2022/07/04 05:37:56;;;;;;;10.32;4.15;;;;;;;;;;4995909;28;20096;-74
2022/07/04 05:40:25;;;;;;;8.57;3.67;;;;;;;;;;4995791;28;20124;-74
2022/07/04 05:42:51;;;;;;;6.80;3.33;;;;;;;;;;4996099;28;20042;-74
2022/07/04 05:45:17;;;;;;;7.88;4.00;;;;;;;;;;4995852;28;20501;-74
2022/07/04 05:47:44;;;;;;;5.68;3.30;;;;;;;;;;5012102;28;20505;-74
2022/07/04 05:50:12;;;;;;;9.25;3.67;;;;;;;;;;4996099;28;20405;-73
2022/07/04 05:52:39;;;;;;;8.10;3.85;;;;;;;;;;4995404;28;20183;-73
2022/07/04 05:55:06;;;;;;;5.80;3.80;;;;;;;;;;5013510;28;20054;-73
2022/07/04 05:57:32;;;;;;;7.78;3.50;;;;;;;;;;4995723;28;20533;-73
2022/07/04 05:59:58;;;;;;;8.88;3.80;;;;;;;;;;4995917;28;20446;-73
2022/07/04 06:02:24;;;;;;;7.60;3.70;;;;;;;;;;4979579;28;20042;-73
2022/07/04 06:04:51;;;;;;;7.40;3.28;;;;;;;;;;4995495;28;20084;-74
2022/07/04 06:07:17;;;;;;;6.10;3.30;;;;;;;;;;4995671;28;20442;-74
2022/07/04 06:09:44;;;;;;;8.05;3.58;;;;;;;;;;5012536;28;20129;-74
2022/07/04 06:12:10;;;;;;;11.82;3.63;;;;;;;;;;4995518;28;20062;-73
2022/07/04 06:14:36;;;;;;;9.52;3.80;;;;;;;;;;4994968;28;20041;-73
2022/07/04 06:17:02;;;;;;;7.32;3.70;;;;;;;;;;4995732;28;20435;-71
2022/07/04 06:19:28;;;;;;;7.75;3.85;;;;;;;;;;4995030;28;20046;-72
2022/07/04 06:21:54;;;;;;;9.13;3.28;;;;;;;;;;4995499;28;20122;-72
2022/07/04 06:24:20;;;;;;;8.88;3.50;;;;;;;;;;4995440;28;20037;-73
2022/07/04 06:26:47;;;;;;;9.07;3.40;;;;;;;;;;4988471;28;20061;-73
2022/07/04 06:29:13;;;;;;;9.55;3.50;;;;;;;;;;4995461;28;20540;-74
2022/07/04 06:31:39;;;;;;;9.50;3.67;;;;;;;;;;4994308;28;20073;-74
2022/07/04 06:36:50;;;;;;;5.93;3.67;;;;;;;;;;5011158;28;20050;-74
2022/07/04 06:39:16;;;;;;;8.27;3.35;;;;;;;;;;5011365;28;20514;-74
2022/07/04 06:41:42;;;;;;;8.00;3.67;;;;;;;;;;5011276;28;20563;-74
2022/07/04 06:44:08;;;;;;;8.32;3.60;;;;;;;;;;5012652;28;20042;-74
2022/07/04 06:46:34;;;;;;;7.18;3.13;;;;;;;;;;5010980;28;20076;-74
2022/07/04 06:49:00;;;;;;;7.22;3.20;;;;;;;;;;5011483;28;20375;-74
2022/07/04 06:51:27;;;;;;;7.40;3.20;;;;;;;;;;4978739;28;20044;-74
2022/07/04 06:53:53;;;;;;;10.82;3.30;;;;;;;;;;5010998;28;20045;-74
2022/07/04 06:56:19;;;;;;;6.50;3.13;;;;;;;;;;5010663;28;20065;-74
2022/07/04 06:58:45;;;;;;;7.68;3.33;;;;;;;;;;4994673;28;20402;-74
2022/07/04 07:01:11;;;;;;;6.43;3.22;;;;;;;;;;4994960;28;20053;-74
2022/07/04 07:03:37;;;;;;;7.78;3.33;;;;;;;;;;4994450;28;20064;-74
2022/07/04 07:06:03;;;;;;;8.40;3.70;;;;;;;;;;4978391;28;20065;-74
2022/07/04 07:08:30;;;;;;;9.05;3.40;;;;;;;;;;5011337;28;20077;-74
2022/07/04 07:10:57;;;;;;;7.80;3.45;;;;;;;;;;5010423;28;20097;-74
2022/07/04 07:13:23;;;;;;;8.85;3.08;;;;;;;;;;5011092;28;20042;-74
2022/07/04 07:15:49;;;;;;;7.38;2.80;;;;;;;;;;5010458;28;20062;-74
2022/07/04 07:18:16;;;;;;;9.30;3.63;;;;;;;;;;4994479;28;20069;-74
2022/07/04 07:20:42;;;;;;;6.47;2.90;;;;;;;;;;4978050;28;20049;-74
2022/07/04 07:23:08;;;;;;;6.57;2.70;;;;;;;;;;5010692;28;20065;-74
2022/07/04 07:25:34;;;;;;;7.05;2.88;;;;;;;;;;5010849;28;20042;-75
2022/07/04 07:28:00;;;;;;;7.85;3.47;;;;;;;;;;5010537;28;20142;-74
2022/07/04 07:30:27;;;;;;;9.30;3.80;;;;;;;;;;4994448;28;20045;-74
2022/07/04 07:32:53;;;;;;;11.15;3.70;;;;;;;;;;4994399;28;20422;-74
2022/07/04 07:35:19;;;;;;;6.63;3.38;;;;;;;;;;4995349;28;20046;-74
2022/07/04 07:37:45;;;;;;;8.25;3.10;;;;;;;;;;4994070;28;20101;-74
2022/07/04 07:40:11;;;;;;;9.27;2.97;;;;;;;;;;4994123;28;20418;-74
2022/07/04 07:42:38;;;;;;;5.78;2.60;;;;;;;;;;4994650;28;20042;-74
2022/07/04 07:45:04;;;;;;;6.30;2.50;;;;;;;;;;4994570;28;20038;-74
2022/07/04 07:47:30;;;;;;;5.32;2.53;;;;;;;;;;4994566;28;20489;-74
2022/07/04 07:49:56;;;;;;;5.35;2.20;;;;;;;;;;5010487;28;20394;-74
2022/07/04 07:52:23;;;;;;;5.70;2.42;;;;;;;;;;4994335;28;20086;-74
2022/07/04 07:54:49;;;;;;;6.00;2.15;;;;;;;;;;4994039;28;20053;-74
2022/07/04 07:57:15;;;;;;;4.10;1.70;;;;;;;;;;4994097;28;20045;-74
2022/07/04 07:59:41;;;;;;;5.28;1.85;;;;;;;;;;4994014;28;20498;-73
2022/07/04 08:02:08;;;;;;;4.65;1.52;;;;;;;;;;4994808;28;20042;-74
2022/07/04 08:04:34;;;;;;;4.50;1.40;;;;;;;;;;4994256;28;20081;-74
2022/07/04 08:07:01;;;;;;;5.15;1.30;;;;;;;;;;4993953;28;20046;-74
2022/07/04 08:09:27;;;;;;;6.03;1.92;;;;;;;;;;4997624;28;20438;-74
2022/07/04 08:11:53;;;;;;;4.72;1.50;;;;;;;;;;4981164;28;20084;-74
2022/07/04 08:14:20;;;;;;;3.13;1.30;;;;;;;;;;5015648;28;20375;-74
2022/07/04 08:16:46;;;;;;;4.18;1.20;;;;;;;;;;4997583;28;20042;-74
2022/07/04 08:19:12;;;;;;;3.67;1.35;;;;;;;;;;4997684;28;20487;-73
2022/07/04 08:21:38;;;;;;;4.93;1.20;;;;;;;;;;4997579;28;20092;-74
2022/07/04 08:24:04;;;;;;;4.10;1.27;;;;;;;;;;4997384;28;20069;-75
2022/07/04 08:26:30;;;;;;;3.38;1.00;;;;;;;;;;4996974;28;20046;-74
2022/07/04 08:28:57;;;;;;;4.43;1.08;;;;;;;;;;5013407;28;20093;-74
2022/07/04 08:31:26;;;;;;;3.10;1.13;;;;;;;;;;5013656;28;20041;-71
2022/07/04 08:33:53;;;;;;;3.17;1.20;;;;;;;;;;4997018;28;20049;-74
2022/07/04 08:36:19;;;;;;;4.32;1.30;;;;;;;;;;4997205;28;20125;-71
2022/07/04 08:38:45;;;;;;;3.63;1.30;;;;;;;;;;5014740;28;20530;-74
2022/07/04 08:41:12;;;;;;;4.50;1.13;;;;;;;;;;4997001;28;20086;-74
2022/07/04 08:43:38;;;;;;;4.10;1.02;;;;;;;;;;5013382;28;20041;-74
2022/07/04 08:46:05;;;;;;;2.65;1.30;;;;;;;;;;4981171;28;20487;-77
2022/07/04 08:48:32;;;;;;;3.10;1.00;;;;;;;;;;5013319;28;20513;-76
2022/07/04 08:51:03;;;;;;;4.03;1.10;;;;;;;;;;4996649;28;20157;-75
2022/07/04 08:53:30;;;;;;;4.55;1.10;;;;;;;;;;5007910;28;20131;-76
2022/07/04 08:58:45;;;;;;;5.85;1.40;;;;;;;;;;4997233;28;20137;-75
2022/07/04 09:01:15;;;;;;;5.18;1.23;;;;;;;;;;4996579;28;20092;-75
2022/07/04 09:03:45;;;;;;;2.83;1.20;;;;;;;;;;4981220;28;20069;-75
2022/07/04 09:06:14;;;;;;;4.57;1.10;;;;;;;;;;4997018;28;20545;-75
2022/07/04 09:08:40;;;;;;;5.57;1.42;;;;;;;;;;5016130;28;20030;-75
2022/07/04 09:11:07;;;;;;;3.80;1.50;;;;;;;;;;4997271;28;20446;-74
2022/07/04 09:13:33;;;;;;;5.32;1.60;;;;;;;;;;4997072;28;20046;-71
2022/07/04 09:16:00;;;;;;;2.92;1.42;;;;;;;;;;5002610;28;20042;-71
2022/07/04 09:18:28;;;;;;;2.67;1.30;;;;;;;;;;4997437;28;20045;-71
2022/07/04 09:20:54;;;;;;;2.05;1.30;;;;;;;;;;4995445;28;20049;-74
2022/07/04 09:23:22;;;;;;;2.70;1.40;;;;;;;;;;4996666;28;20045;-73
2022/07/04 09:25:49;;;;;;;4.18;1.52;;;;;;;;;;5005856;28;20073;-75
2022/07/04 09:28:28;;;;;;;3.35;1.42;;;;;;;;;;5012368;28;20392;-74
2022/07/04 09:30:54;;;;;;;3.00;1.30;;;;;;;;;;5015366;28;20120;-72
2022/07/04 09:33:21;;;;;;;4.47;1.67;;;;;;;;;;5015320;28;20493;-72
2022/07/04 09:35:47;;;;;;;4.30;1.50;;;;;;;;;;5019682;28;20049;-74
2022/07/04 09:38:21;;;;;;;4.00;1.58;;;;;;;;;;5014641;28;20083;-73
2022/07/04 09:43:57;;;;;;;4.50;1.80;;;;;;;;;;5033799;28;20068;-77
2022/07/04 09:46:33;;;;;;;3.65;1.63;;;;;;;;;;5015885;28;20039;-72
2022/07/04 09:48:59;;;;;;;4.65;1.95;;;;;;;;;;5001017;28;20029;-78
2022/07/04 09:51:45;;;;;;;5.80;1.60;;;;;;;;;;5015370;28;20065;-81
2022/07/04 09:54:14;;;;;;;5.50;1.75;;;;;;;;;;5001579;28;20111;-73
2022/07/04 09:56:40;;;;;;;3.17;1.90;;;;;;;;;;5015196;28;20049;-72
2022/07/04 09:59:07;;;;;;;3.78;1.60;;;;;;;;;;5014655;28;20041;-71
2022/07/04 10:01:33;;;;;;;3.92;1.60;;;;;;;;;;5008486;28;20057;-72
2022/07/04 10:03:59;;;;;;;3.72;1.85;;;;;;;;;;4998391;28;21640;-79
2022/07/04 10:06:26;;;;;;;5.90;1.90;;;;;;;;;;5031435;28;20037;-73
2022/07/04 10:08:52;;;;;;;4.85;2.05;;;;;;;;;;5014886;28;20487;-73
2022/07/04 10:11:18;;;;;;;4.15;2.08;;;;;;;;;;5031204;28;20060;-82
2022/07/04 10:13:44;;;;;;;4.90;1.50;;;;;;;;;;5026268;28;20370;-83
2022/07/04 10:16:11;;;;;;;2.75;1.27;;;;;;;;;;5015543;28;20144;-80
2022/07/04 10:18:37;;;;;;;6.22;1.23;;;;;;;;;;5041907;28;20041;-86
2022/07/04 10:21:03;;;;;;;3.97;1.60;;;;;;;;;;5015429;28;20052;-84
2022/07/04 10:23:33;;;;;;;3.45;1.10;;;;;;;;;;5011466;28;20038;-84
2022/07/04 10:26:00;;;;;;;4.55;1.20;;;;;;;;;;5014746;28;20041;-81
2022/07/04 10:28:26;;;;;;;4.70;1.27;;;;;;;;;;5034087;28;20042;-76
2022/07/04 10:30:53;;;;;;;2.88;1.20;;;;;;;;;;5021463;28;20127;-74
2022/07/04 10:33:24;;;;;;;4.55;1.00;;;;;;;;;;5021784;28;20041;-69
2022/07/04 10:35:50;;;;;;;2.03;0.90;;;;;;;;;;5018295;28;20037;-85
2022/07/04 10:38:18;;;;;;;2.40;1.20;;;;;;;;;;5023747;28;20041;-72
2022/07/04 10:40:56;;;;;;;4.75;1.30;;;;;;;;;;5010125;28;20057;-74
2022/07/04 10:43:43;;;;;;;1.95;1.05;;;;;;;;;;5011767;28;20042;-73
2022/07/04 10:46:15;;;;;;;4.30;1.23;;;;;;;;;;4982350;28;20040;-73
2022/07/04 10:48:52;;;;;;;3.33;1.00;;;;;;;;;;5019339;28;20132;-75
2022/07/04 10:51:41;;;;;;;4.03;1.00;;;;;;;;;;4991483;28;20038;-79
2022/07/04 10:54:18;;;;;;;4.68;1.27;;;;;;;;;;5027244;28;20083;-75
2022/07/04 10:56:54;;;;;;;2.72;1.05;;;;;;;;;;5007071;28;20068;-73
2022/07/04 10:59:25;;;;;;;3.28;1.10;;;;;;;;;;5011311;28;20034;-71
2022/07/04 11:02:06;;;;;;;2.60;1.00;;;;;;;;;;4999607;28;20125;-80
2022/07/04 11:04:51;;;;;;;1.83;0.93;;;;;;;;;;5010221;28;20038;-82
2022/07/04 11:07:18;;;;;;;3.80;1.25;;;;;;;;;;5011385;28;20116;-71
2022/07/04 11:09:45;;;;;;;2.47;1.10;;;;;;;;;;5003614;28;20053;-72
2022/07/04 11:12:14;;;;;;;2.85;1.05;;;;;;;;;;5020835;28;20128;-71
2022/07/04 11:14:44;;;;;;;3.85;1.17;;;;;;;;;;4999341;28;20111;-71
2022/07/04 11:17:10;;;;;;;3.17;1.00;;;;;;;;;;5014358;28;20049;-71
2022/07/04 11:19:37;;;;;;;2.28;1.00;;;;;;;;;;4997672;28;20050;-72
2022/07/04 11:22:04;;;;;;;3.25;1.10;;;;;;;;;;5014392;28;20052;-72
2022/07/04 11:24:31;;;;;;;2.35;0.90;;;;;;;;;;5031686;28;20128;-71
2022/07/04 11:26:57;;;;;;;1.95;0.90;;;;;;;;;;5004465;28;20054;-71
2022/07/04 11:29:24;;;;;;;2.25;0.90;;;;;;;;;;5027317;28;20094;-72
2022/07/04 11:31:51;;;;;;;3.15;0.90;;;;;;;;;;5014327;28;20040;-72
2022/07/04 11:34:17;;;;;;;2.67;0.85;;;;;;;;;;5013954;28;20034;-71
2022/07/04 11:36:44;;;;;;;2.30;1.00;;;;;;;;;;5014205;28;20037;-71
2022/07/04 11:39:12;;;;;;;3.25;0.90;;;;;;;;;;5014108;28;20049;-79
2022/07/04 11:47:19;;;;;;;2.35;0.85;;;;;;;;;;5034302;28;20045;-82
2022/07/04 11:49:55;;;;;;;2.80;1.02;;;;;;;;;;5007469;28;20564;-83
2022/07/04 11:52:22;;;;;;;2.72;0.90;;;;;;;;;;5015116;28;20096;-81
2022/07/04 11:54:53;;;;;;;4.20;0.80;;;;;;;;;;5035030;28;20045;-81
2022/07/04 11:57:22;;;;;;;2.28;0.80;;;;;;;;;;5016693;28;20037;-81
2022/07/04 11:59:59;;;;;;;3.00;0.90;;;;;;;;;;5017764;28;20045;-81
2022/07/04 12:02:26;;;;;;;3.72;1.17;;;;;;;;;;5033943;28;20045;-82
2022/07/04 12:04:52;;;;;;;4.78;0.80;;;;;;;;;;5034639;28;20048;-82
2022/07/04 12:07:20;;;;;;;2.10;0.82;;;;;;;;;;5001389;28;20037;-79
2022/07/04 12:09:47;;;;;;;7.20;1.13;;;;;;;;;;5020872;28;20124;-81
2022/07/04 12:12:16;;;;;;;2.42;1.00;;;;;;;;;;5034453;28;20084;-70
2022/07/04 12:14:56;;;;;;;2.15;0.80;;;;;;;;;;5017466;28;20103;-72
2022/07/04 12:17:22;;;;;;;2.90;1.13;;;;;;;;;;5017358;28;20042;-71
2022/07/04 12:19:52;;;;;;;4.30;1.00;;;;;;;;;;5017767;28;20529;-79
2022/07/04 12:22:29;;;;;;;2.20;0.80;;;;;;;;;;5017602;28;20121;-82
2022/07/04 12:24:56;;;;;;;2.33;0.80;;;;;;;;;;5015277;28;20391;-81
2022/07/04 12:27:26;;;;;;;1.40;0.80;;;;;;;;;;5014702;28;20049;-80
2022/07/04 12:29:53;;;;;;;4.28;0.95;;;;;;;;;;5034424;28;20041;-85
2022/07/04 12:32:19;;;;;;;1.80;0.70;;;;;;;;;;5033546;28;20493;-70
2022/07/04 12:34:46;;;;;;;3.97;0.65;;;;;;;;;;5017317;28;20045;-69
2022/07/04 12:37:13;;;;;;;3.97;0.80;;;;;;;;;;5017267;28;20046;-72
2022/07/04 12:39:40;;;;;;;1.23;0.70;;;;;;;;;;5018203;28;20057;-71
2022/07/04 12:42:36;;;;;;;2.15;0.75;;;;;;;;;;5035268;28;20034;-75
2022/07/04 12:45:22;;;;;;;3.85;1.60;;;;;;;;;;5036016;28;20033;-71
2022/07/04 12:47:49;;;;;;;2.22;0.75;;;;;;;;;;5010888;28;20045;-72
2022/07/04 12:50:15;;;;;;;3.47;0.80;;;;;;;;;;5029769;28;20041;-72
2022/07/04 12:52:42;;;;;;;2.20;0.70;;;;;;;;;;5016859;28;20044;-72
2022/07/04 12:55:10;;;;;;;4.95;0.80;;;;;;;;;;5021247;28;20398;-73
2022/07/04 12:57:36;;;;;;;3.05;0.80;;;;;;;;;;5003161;28;20418;-70
2022/07/04 13:00:03;;;;;;;2.28;0.70;;;;;;;;;;5032918;28;20079;-74
2022/07/04 13:02:30;;;;;;;3.40;0.93;;;;;;;;;;5032881;28;20492;-71
2022/07/04 13:04:56;;;;;;;4.05;0.80;;;;;;;;;;5023131;28;20045;-71
2022/07/04 13:07:23;;;;;;;2.92;0.95;;;;;;;;;;5034102;28;20041;-72
2022/07/04 13:09:49;;;;;;;2.05;0.80;;;;;;;;;;5016406;28;20053;-70
2022/07/04 13:12:30;;;;;;;2.03;0.73;;;;;;;;;;5016648;28;20049;-73
2022/07/04 13:14:58;;;;;;;2.72;0.80;;;;;;;;;;5002379;28;20049;-76
2022/07/04 13:17:25;;;;;;;5.13;0.77;;;;;;;;;;5016546;28;20485;-75
2022/07/04 13:19:55;;;;;;;2.67;0.90;;;;;;;;;;5018263;28;20461;-72
2022/07/04 13:22:22;;;;;;;1.80;0.80;;;;;;;;;;5015940;28;20041;-73
2022/07/04 13:24:48;;;;;;;4.03;0.82;;;;;;;;;;5016170;28;20125;-69
2022/07/04 13:27:14;;;;;;;2.10;0.70;;;;;;;;;;5016904;28;20132;-71
2022/07/04 13:29:40;;;;;;;1.92;0.73;;;;;;;;;;5032484;28;20053;-72
2022/07/04 13:32:07;;;;;;;2.55;0.93;;;;;;;;;;4997480;28;20064;-72
2022/07/04 13:34:33;;;;;;;2.03;0.80;;;;;;;;;;5038657;28;20045;-72
2022/07/04 13:36:59;;;;;;;1.70;0.70;;;;;;;;;;5034085;28;20045;-72
2022/07/04 13:39:25;;;;;;;3.15;0.85;;;;;;;;;;5015655;28;20070;-71
2022/07/04 13:41:51;;;;;;;2.10;0.80;;;;;;;;;;5007417;28;20112;-71
2022/07/04 13:44:17;;;;;;;3.92;0.75;;;;;;;;;;5015883;28;20033;-72
2022/07/04 13:46:44;;;;;;;1.38;0.70;;;;;;;;;;5037293;28;20033;-73
2022/07/04 13:49:13;;;;;;;2.92;0.68;;;;;;;;;;5032218;28;20038;-72
2022/07/04 13:51:40;;;;;;;2.03;0.60;;;;;;;;;;5029034;28;20080;-73
2022/07/04 13:54:06;;;;;;;1.95;0.80;;;;;;;;;;5012423;28;20068;-71
2022/07/04 13:56:33;;;;;;;2.40;0.88;;;;;;;;;;5031394;28;20052;-72
2022/07/04 13:59:00;;;;;;;2.55;0.70;;;;;;;;;;5001574;28;20038;-72
2022/07/04 14:01:26;;;;;;;2.80;0.85;;;;;;;;;;5012375;28;20056;-77
2022/07/04 14:03:52;;;;;;;2.53;0.90;;;;;;;;;;5033104;28;20046;-78
2022/07/04 14:06:18;;;;;;;3.75;0.60;;;;;;;;;;5015557;28;20041;-80
2022/07/04 14:08:44;;;;;;;1.88;0.60;;;;;;;;;;5016792;28;20446;-73
2022/07/04 14:11:11;;;;;;;1.60;0.70;;;;;;;;;;4999007;28;20045;-72
2022/07/04 14:13:37;;;;;;;3.08;0.85;;;;;;;;;;5017387;28;20509;-72
2022/07/04 14:16:05;;;;;;;3.30;0.70;;;;;;;;;;5032913;28;20509;-71
2022/07/04 14:18:32;;;;;;;2.55;0.80;;;;;;;;;;5032187;28;20164;-73
2022/07/04 14:20:58;;;;;;;1.52;0.60;;;;;;;;;;5014878;28;20041;-72
2022/07/04 14:23:42;;;;;;;2.08;0.60;;;;;;;;;;5015150;28;20064;-71
2022/07/04 14:26:12;;;;;;;2.75;0.60;;;;;;;;;;5024677;28;20496;-73
2022/07/04 14:28:44;;;;;;;1.75;0.52;;;;;;;;;;5014773;28;20533;-72
2022/07/04 14:31:10;;;;;;;1.60;0.80;;;;;;;;;;5031019;28;20049;-72
2022/07/04 14:33:36;;;;;;;2.92;0.60;;;;;;;;;;5013147;28;20561;-72
2022/07/04 14:36:04;;;;;;;1.88;0.70;;;;;;;;;;5011523;28;20076;-73
2022/07/04 14:38:30;;;;;;;2.13;0.65;;;;;;;;;;5032710;28;20394;-80
2022/07/04 14:40:56;;;;;;;1.88;0.60;;;;;;;;;;5012922;28;20038;-71
2022/07/04 14:43:22;;;;;;;1.88;0.60;;;;;;;;;;5007390;28;20064;-79
2022/07/04 14:45:48;;;;;;;3.17;0.70;;;;;;;;;;5030776;28;20478;-71
2022/07/04 14:48:15;;;;;;;3.28;0.80;;;;;;;;;;5014927;28;20037;-72
2022/07/04 14:50:41;;;;;;;3.33;0.85;;;;;;;;;;5030796;28;20042;-71
2022/07/04 14:53:07;;;;;;;3.28;0.80;;;;;;;;;;5025461;28;20128;-73
2022/07/04 14:55:33;;;;;;;3.42;0.70;;;;;;;;;;5014018;28;20041;-70
2022/07/04 14:57:59;;;;;;;2.80;0.80;;;;;;;;;;5022986;28;20443;-73
2022/07/04 15:00:26;;;;;;;1.35;0.50;;;;;;;;;;5008369;28;20478;-71
2022/07/04 15:02:53;;;;;;;1.40;0.60;;;;;;;;;;4998011;28;20152;-71